createdAt,value
2023-03-05T00:00:10.703Z,8.20
2023-03-05T00:01:27.039Z,5.80
2023-03-05T00:02:28.675Z,4.63
2023-03-05T00:03:30.458Z,6.20
2023-03-05T00:04:31.983Z,6.27
2023-03-05T00:05:34.872Z,7.33
2023-03-05T00:06:36.386Z,4.10
2023-03-05T00:07:37.860Z,5.23
2023-03-05T00:08:39.421Z,6.10
2023-03-05T00:09:41.070Z,4.80
2023-03-05T00:10:42.504Z,5.47
2023-03-05T00:11:43.904Z,4.97
2023-03-05T00:12:45.615Z,5.87
2023-03-05T00:13:47.563Z,5.87
2023-03-05T00:14:49.028Z,5.57
2023-03-05T00:15:50.471Z,8.37
2023-03-05T00:16:51.944Z,5.40
2023-03-05T00:17:53.330Z,4.70
2023-03-05T00:18:56.946Z,6.57
2023-03-05T00:20:00.825Z,5.73
2023-03-05T00:21:04.023Z,5.10
2023-03-05T00:22:05.522Z,5.63
2023-03-05T00:23:06.982Z,7.73
2023-03-05T00:24:16.804Z,5.17
2023-03-05T00:25:18.361Z,6.33
2023-03-05T00:26:22.195Z,6.50
2023-03-05T00:27:24.038Z,5.67
2023-03-05T00:28:25.696Z,6.17
2023-03-05T00:29:31.327Z,5.60
2023-03-05T00:30:34.137Z,6.20
2023-03-05T00:31:36.528Z,5.87
2023-03-05T00:32:38.232Z,8.40
2023-03-05T00:33:39.873Z,7.30
2023-03-05T00:34:41.334Z,7.70
2023-03-05T00:35:45.405Z,5.83
2023-03-05T00:36:51.027Z,5.97
2023-03-05T00:37:52.701Z,6.03
2023-03-05T00:38:54.348Z,6.97
2023-03-05T00:39:57.672Z,5.27
2023-03-05T00:40:59.276Z,5.80
2023-03-05T00:42:01.281Z,5.70
2023-03-05T00:43:03.623Z,6.30
2023-03-05T00:44:05.408Z,6.20
2023-03-05T00:45:08.198Z,6.87
2023-03-05T00:46:09.746Z,8.23
2023-03-05T00:47:11.793Z,7.83
2023-03-05T00:48:13.245Z,4.53
2023-03-05T00:49:14.680Z,4.70
2023-03-05T00:50:16.235Z,6.60
2023-03-05T00:51:18.038Z,4.83
2023-03-05T00:52:19.534Z,4.83
2023-03-05T00:53:21.413Z,6.27
2023-03-05T00:54:22.923Z,6.23
2023-03-05T00:55:24.368Z,6.00
2023-03-05T00:56:26.043Z,7.40
2023-03-05T00:57:27.555Z,4.87
2023-03-05T00:58:29.796Z,5.40
2023-03-05T00:59:31.389Z,4.63
2023-03-05T01:00:32.987Z,4.93
2023-03-05T01:01:34.729Z,6.10
2023-03-05T01:02:37.288Z,5.53
2023-03-05T01:03:38.866Z,4.50
2023-03-05T01:04:40.316Z,6.20
2023-03-05T01:05:41.928Z,6.47
2023-03-05T01:06:44.786Z,5.60
2023-03-05T01:07:51.763Z,6.33
2023-03-05T01:08:53.257Z,4.60
2023-03-05T01:09:54.861Z,6.03
2023-03-05T01:10:56.337Z,4.90
2023-03-05T01:11:57.779Z,6.13
2023-03-05T01:13:00.014Z,5.30
2023-03-05T01:14:01.478Z,5.77
2023-03-05T01:15:05.886Z,5.47
2023-03-05T01:16:08.033Z,6.53
2023-03-05T01:17:09.568Z,8.50
2023-03-05T01:18:10.955Z,5.00
2023-03-05T01:19:15.079Z,5.13
2023-03-05T01:20:18.114Z,6.90
2023-03-05T01:21:20.194Z,5.90
2023-03-05T01:22:21.676Z,6.57
2023-03-05T01:23:23.234Z,7.23
2023-03-05T01:24:24.837Z,6.50
2023-03-05T01:25:26.226Z,5.00
2023-03-05T01:26:28.467Z,5.43
2023-03-05T01:27:29.896Z,5.90
2023-03-05T01:28:32.813Z,6.53
2023-03-05T01:29:34.499Z,6.00
2023-03-05T01:30:36.961Z,5.47
2023-03-05T01:31:38.924Z,4.60
2023-03-05T01:32:40.506Z,6.03
2023-03-05T01:33:42.012Z,5.60
2023-03-05T01:34:43.520Z,4.17
2023-03-05T01:35:49.203Z,4.30
2023-03-05T01:36:50.749Z,5.40
2023-03-05T01:37:53.385Z,5.70
2023-03-05T01:38:54.930Z,3.93
2023-03-05T01:39:56.926Z,4.63
2023-03-05T01:40:58.652Z,7.70
2023-03-05T01:42:00.613Z,5.57
2023-03-05T01:43:14.190Z,7.93
2023-03-05T01:44:25.456Z,5.93
2023-03-05T01:45:32.472Z,5.97
2023-03-05T01:46:38.933Z,6.27
2023-03-05T01:47:40.638Z,5.73
2023-03-05T01:48:49.892Z,6.23
2023-03-05T01:49:51.786Z,7.33
2023-03-05T01:50:54.297Z,5.30
2023-03-05T01:52:03.702Z,4.77
2023-03-05T01:53:07.458Z,5.63
2023-03-05T01:54:11.652Z,5.57
2023-03-05T01:55:19.880Z,5.70
2023-03-05T01:56:21.948Z,6.10
2023-03-05T01:57:29.140Z,5.13
2023-03-05T01:58:31.039Z,6.07
2023-03-05T01:59:33.462Z,4.77
2023-03-05T02:00:41.221Z,4.17
2023-03-05T02:01:51.029Z,6.00
2023-03-05T02:02:53.382Z,6.40
2023-03-05T02:03:55.191Z,6.43
2023-03-05T02:05:02.206Z,5.10
2023-03-05T02:06:04.049Z,5.90
2023-03-05T02:07:05.970Z,4.03
2023-03-05T02:08:09.730Z,6.07
2023-03-05T02:09:11.577Z,4.97
2023-03-05T02:10:20.076Z,5.40
2023-03-05T02:11:21.560Z,4.83
2023-03-05T02:12:26.358Z,5.73
2023-03-05T02:13:32.587Z,5.57
2023-03-05T02:14:35.104Z,6.40
2023-03-05T02:15:37.850Z,5.17
2023-03-05T02:16:39.758Z,5.30
2023-03-05T02:17:41.318Z,5.07
2023-03-05T02:18:42.740Z,5.90
2023-03-05T02:19:56.386Z,5.37
2023-03-05T02:20:57.854Z,5.60
2023-03-05T02:21:59.251Z,8.17
2023-03-05T02:23:01.121Z,8.00
2023-03-05T02:24:02.592Z,6.50
2023-03-05T02:25:33.124Z,6.30
2023-03-05T02:26:34.545Z,5.47
2023-03-05T02:27:35.946Z,4.17
2023-03-05T02:28:42.803Z,6.03
2023-03-05T02:29:46.775Z,5.00
2023-03-05T02:30:48.764Z,4.73
2023-03-05T02:31:50.282Z,5.53
2023-03-05T02:32:52.095Z,6.90
2023-03-05T02:33:58.688Z,6.70
2023-03-05T02:35:00.671Z,6.87
2023-03-05T02:36:02.821Z,6.20
2023-03-05T02:37:09.141Z,6.53
2023-03-05T02:38:12.621Z,7.07
2023-03-05T02:39:14.108Z,6.60
2023-03-05T02:40:16.608Z,4.90
2023-03-05T02:41:18.276Z,5.93
2023-03-05T02:42:19.867Z,5.17
2023-03-05T02:43:21.630Z,4.03
2023-03-05T02:44:23.101Z,6.03
2023-03-05T02:45:24.891Z,6.00
2023-03-05T02:46:26.467Z,6.67
2023-03-05T02:47:28.610Z,6.20
2023-03-05T02:48:30.977Z,6.10
2023-03-05T02:49:32.409Z,6.20
2023-03-05T02:50:35.407Z,5.60
2023-03-05T02:51:37.507Z,4.73
2023-03-05T02:52:39.424Z,7.57
2023-03-05T02:53:45.771Z,8.47
2023-03-05T02:54:47.244Z,4.23
2023-03-05T02:55:49.054Z,4.60
2023-03-05T02:56:50.776Z,4.80
2023-03-05T02:57:52.201Z,5.83
2023-03-05T02:58:53.577Z,5.63
2023-03-05T02:59:55.202Z,5.00
2023-03-05T03:00:56.788Z,5.63
2023-03-05T03:01:58.231Z,5.17
2023-03-05T03:02:59.664Z,5.07
2023-03-05T03:04:02.313Z,5.77
2023-03-05T03:05:03.920Z,4.00
2023-03-05T03:06:06.155Z,5.00
2023-03-05T03:07:07.545Z,5.33
2023-03-05T03:08:09.159Z,4.43
2023-03-05T03:09:10.567Z,6.50
2023-03-05T03:10:12.508Z,4.70
2023-03-05T03:11:14.234Z,5.23
2023-03-05T03:12:16.054Z,6.03
2023-03-05T03:13:17.538Z,5.53
2023-03-05T03:14:19.205Z,5.70
2023-03-05T03:15:20.938Z,4.93
2023-03-05T03:16:22.616Z,4.70
2023-03-05T03:17:24.039Z,4.30
2023-03-05T03:18:25.566Z,5.37
2023-03-05T03:19:27.439Z,5.80
2023-03-05T03:20:28.881Z,5.60
2023-03-05T03:21:30.750Z,4.50
2023-03-05T03:22:32.217Z,5.40
2023-03-05T03:23:34.406Z,5.13
2023-03-05T03:24:37.287Z,4.70
2023-03-05T03:25:39.156Z,3.83
2023-03-05T03:26:40.596Z,5.90
2023-03-05T03:27:42.396Z,3.50
2023-03-05T03:28:44.200Z,4.43
2023-03-05T03:29:45.664Z,4.37
2023-03-05T03:30:47.407Z,3.80
2023-03-05T03:31:49.272Z,6.53
2023-03-05T03:32:52.422Z,5.10
2023-03-05T03:33:53.913Z,4.77
2023-03-05T03:34:55.336Z,5.43
2023-03-05T03:35:56.780Z,5.30
2023-03-05T03:36:58.420Z,5.87
2023-03-05T03:37:59.984Z,4.67
2023-03-05T03:39:01.462Z,4.67
2023-03-05T03:40:05.702Z,5.13
2023-03-05T03:41:08.236Z,4.63
2023-03-05T03:42:10.073Z,4.90
2023-03-05T03:43:11.872Z,5.23
2023-03-05T03:44:13.883Z,6.60
2023-03-05T03:45:15.529Z,4.27
2023-03-05T03:46:16.993Z,4.97
2023-03-05T03:47:19.301Z,5.40
2023-03-05T03:48:20.775Z,4.60
2023-03-05T03:49:25.248Z,5.20
2023-03-05T03:50:26.711Z,5.73
2023-03-05T03:51:28.111Z,3.80
2023-03-05T03:52:29.779Z,4.97
2023-03-05T03:53:31.462Z,5.53
2023-03-05T03:54:33.414Z,4.73
2023-03-05T03:55:35.430Z,4.40
2023-03-05T03:56:37.197Z,5.13
2023-03-05T03:57:38.911Z,4.17
2023-03-05T03:58:40.313Z,5.47
2023-03-05T03:59:41.770Z,5.07
2023-03-05T04:00:43.283Z,5.30
2023-03-05T04:01:44.918Z,4.47
2023-03-05T04:02:46.522Z,5.77
2023-03-05T04:03:48.219Z,8.10
2023-03-05T04:04:49.978Z,4.73
2023-03-05T04:05:51.392Z,5.23
2023-03-05T04:06:53.339Z,6.00
2023-03-05T04:07:55.306Z,4.37
2023-03-05T04:08:57.444Z,4.77
2023-03-05T04:09:58.885Z,5.20
2023-03-05T04:11:02.262Z,4.67
2023-03-05T04:12:03.929Z,3.90
2023-03-05T04:13:06.501Z,5.10
2023-03-05T04:14:08.886Z,4.83
2023-03-05T04:15:10.833Z,6.23
2023-03-05T04:16:13.257Z,4.13
2023-03-05T04:17:15.428Z,4.50
2023-03-05T04:18:16.979Z,5.30
2023-03-05T04:19:18.440Z,4.10
2023-03-05T04:20:19.897Z,5.20
2023-03-05T04:21:21.454Z,4.97
2023-03-05T04:22:22.915Z,4.70
2023-03-05T04:23:24.390Z,4.83
2023-03-05T04:24:26.125Z,4.93
2023-03-05T04:25:27.665Z,4.73
2023-03-05T04:26:30.282Z,3.37
2023-03-05T04:27:32.393Z,4.03
2023-03-05T04:28:33.800Z,4.33
2023-03-05T04:29:35.490Z,3.87
2023-03-05T04:30:37.609Z,4.43
2023-03-05T04:31:38.991Z,3.83
2023-03-05T04:32:41.080Z,4.20
2023-03-05T04:33:42.512Z,4.73
2023-03-05T04:34:43.924Z,5.10
2023-03-05T04:35:45.429Z,4.63
2023-03-05T04:36:46.928Z,3.70
2023-03-05T04:37:48.556Z,4.77
2023-03-05T04:38:49.972Z,4.70
2023-03-05T04:39:52.133Z,4.10
2023-03-05T04:40:53.749Z,5.07
2023-03-05T04:41:55.304Z,5.00
2023-03-05T04:42:56.911Z,6.40
2023-03-05T04:43:58.438Z,5.50
2023-03-05T04:44:59.967Z,5.33
2023-03-05T04:46:01.506Z,3.93
2023-03-05T04:47:03.527Z,3.63
2023-03-05T04:48:05.085Z,3.07
2023-03-05T04:49:06.811Z,5.20
2023-03-05T04:50:10.164Z,5.30
2023-03-05T04:51:11.697Z,4.50
2023-03-05T04:52:14.032Z,4.93
2023-03-05T04:53:15.438Z,3.67
2023-03-05T04:54:16.868Z,5.63
2023-03-05T04:55:18.499Z,3.23
2023-03-05T04:56:20.197Z,3.30
2023-03-05T04:57:23.144Z,3.87
2023-03-05T04:58:25.409Z,3.73
2023-03-05T04:59:26.839Z,5.93
2023-03-05T05:00:28.342Z,3.80
2023-03-05T05:01:29.921Z,4.00
2023-03-05T05:02:31.507Z,3.73
2023-03-05T05:03:33.153Z,5.67
2023-03-05T05:04:36.140Z,5.87
2023-03-05T05:05:37.840Z,4.23
2023-03-05T05:06:39.527Z,4.10
2023-03-05T05:07:41.102Z,3.60
2023-03-05T05:08:43.354Z,3.30
2023-03-05T05:09:44.768Z,5.40
2023-03-05T05:10:46.396Z,5.73
2023-03-05T05:11:47.806Z,5.83
2023-03-05T05:12:49.224Z,4.50
2023-03-05T05:13:50.718Z,4.60
2023-03-05T05:14:52.253Z,3.87
2023-03-05T05:15:53.804Z,3.90
2023-03-05T05:16:55.209Z,3.93
2023-03-05T05:17:56.663Z,4.63
2023-03-05T05:18:58.248Z,4.70
2023-03-05T05:20:06.444Z,4.60
2023-03-05T05:21:13.061Z,4.30
2023-03-05T05:22:14.717Z,3.50
2023-03-05T05:23:17.246Z,4.20
2023-03-05T05:24:18.640Z,6.50
2023-03-05T05:25:20.427Z,3.80
2023-03-05T05:26:21.862Z,3.93
2023-03-05T05:27:23.808Z,3.90
2023-03-05T05:28:25.325Z,3.67
2023-03-05T05:29:26.756Z,3.90
2023-03-05T05:30:28.300Z,4.13
2023-03-05T05:31:29.778Z,4.70
2023-03-05T05:32:31.373Z,3.87
2023-03-05T05:33:32.848Z,3.70
2023-03-05T05:34:34.358Z,4.37
2023-03-05T05:35:39.570Z,3.60
2023-03-05T05:36:41.345Z,4.90
2023-03-05T05:37:42.781Z,3.73
2023-03-05T05:38:44.276Z,4.07
2023-03-05T05:39:50.189Z,2.93
2023-03-05T05:40:51.574Z,4.60
2023-03-05T05:41:53.703Z,4.27
2023-03-05T05:42:55.065Z,3.80
2023-03-05T05:43:56.571Z,2.90
2023-03-05T05:44:58.381Z,3.90
2023-03-05T05:46:05.316Z,3.33
2023-03-05T05:47:07.410Z,3.77
2023-03-05T05:48:09.090Z,4.50
2023-03-05T05:49:10.723Z,3.37
2023-03-05T05:50:12.229Z,7.10
2023-03-05T05:51:16.836Z,4.47
2023-03-05T05:52:18.246Z,2.80
2023-03-05T05:53:19.654Z,4.17
2023-03-05T05:54:21.068Z,3.93
2023-03-05T05:55:22.450Z,4.10
2023-03-05T05:56:24.940Z,3.23
2023-03-05T05:57:26.350Z,3.57
2023-03-05T05:58:27.753Z,3.03
2023-03-05T05:59:29.201Z,3.60
2023-03-05T06:00:30.615Z,3.70
2023-03-05T06:01:34.558Z,4.43
2023-03-05T06:02:39.337Z,4.43
2023-03-05T06:03:40.791Z,3.63
2023-03-05T06:04:42.247Z,3.63
2023-03-05T06:05:44.168Z,4.10
2023-03-05T06:06:45.895Z,5.80
2023-03-05T06:07:47.357Z,3.77
2023-03-05T06:08:50.983Z,3.60
2023-03-05T06:09:52.515Z,3.30
2023-03-05T06:10:55.419Z,3.00
2023-03-05T06:11:56.878Z,3.00
2023-03-05T06:12:58.378Z,3.43
2023-03-05T06:13:59.857Z,3.60
2023-03-05T06:15:01.382Z,2.83
2023-03-05T06:16:06.489Z,3.70
2023-03-05T06:17:07.920Z,3.70
2023-03-05T06:18:09.329Z,3.30
2023-03-05T06:19:12.644Z,3.27
2023-03-05T06:20:14.450Z,3.03
2023-03-05T06:21:17.565Z,3.03
2023-03-05T06:22:19.232Z,3.40
2023-03-05T06:23:20.669Z,2.63
2023-03-05T06:24:22.429Z,4.23
2023-03-05T06:25:23.928Z,2.53
2023-03-05T06:26:26.023Z,3.40
2023-03-05T06:27:28.102Z,3.10
2023-03-05T06:28:30.401Z,3.67
2023-03-05T06:29:31.951Z,2.97
2023-03-05T06:30:33.370Z,4.30
2023-03-05T06:31:37.138Z,3.13
2023-03-05T06:32:38.879Z,2.97
2023-03-05T06:33:41.213Z,3.07
2023-03-05T06:34:42.641Z,2.80
2023-03-05T06:35:44.076Z,3.33
2023-03-05T06:36:45.766Z,2.37
2023-03-05T06:37:47.154Z,4.20
2023-03-05T06:38:51.125Z,3.07
2023-03-05T06:39:54.297Z,3.40
2023-03-05T06:40:55.709Z,2.80
2023-03-05T06:41:57.320Z,2.67
2023-03-05T06:42:58.886Z,3.00
2023-03-05T06:44:02.391Z,2.50
2023-03-05T06:45:04.108Z,2.60
2023-03-05T06:46:17.125Z,3.30
2023-03-05T06:47:18.802Z,2.40
2023-03-05T06:48:20.180Z,2.67
2023-03-05T06:49:21.799Z,2.10
2023-03-05T06:50:23.516Z,2.83
2023-03-05T06:51:28.127Z,2.23
2023-03-05T06:52:30.164Z,2.77
2023-03-05T06:53:31.649Z,3.10
2023-03-05T06:54:33.581Z,2.00
2023-03-05T06:55:39.852Z,3.17
2023-03-05T06:56:44.259Z,1.57
2023-03-05T06:57:45.713Z,1.90
2023-03-05T06:58:49.630Z,3.40
2023-03-05T06:59:51.196Z,3.60
2023-03-05T07:00:52.718Z,2.87
2023-03-05T07:01:54.190Z,2.30
2023-03-05T07:02:55.604Z,2.53
2023-03-05T07:04:02.879Z,2.60
2023-03-05T07:05:05.937Z,2.13
2023-03-05T07:06:12.998Z,2.20
2023-03-05T07:07:14.785Z,3.23
2023-03-05T07:08:16.475Z,1.90
2023-03-05T07:09:18.054Z,2.70
2023-03-05T07:10:19.498Z,3.67
2023-03-05T07:11:21.215Z,2.20
2023-03-05T07:12:22.756Z,2.00
2023-03-05T07:13:25.644Z,2.10
2023-03-05T07:14:27.514Z,2.20
2023-03-05T07:15:28.959Z,2.27
2023-03-05T07:16:32.995Z,2.57
2023-03-05T07:17:34.441Z,3.07
2023-03-05T07:18:36.144Z,2.60
2023-03-05T07:19:38.631Z,2.57
2023-03-05T07:20:40.029Z,2.53
2023-03-05T07:21:42.055Z,2.57
2023-03-05T07:22:43.616Z,2.57
2023-03-05T07:23:45.362Z,3.73
2023-03-05T07:24:47.293Z,2.50
2023-03-05T07:25:48.667Z,4.07
2023-03-05T07:26:50.077Z,3.53
2023-03-05T07:27:51.621Z,2.90
2023-03-05T07:28:55.121Z,2.27
2023-03-05T07:29:56.587Z,2.53
2023-03-05T07:31:05.577Z,3.20
2023-03-05T07:32:07.425Z,3.00
2023-03-05T07:33:08.943Z,2.20
2023-03-05T07:34:10.590Z,2.83
2023-03-05T07:35:12.163Z,2.53
2023-03-05T07:36:14.421Z,2.50
2023-03-05T07:37:16.127Z,3.70
2023-03-05T07:38:17.638Z,3.10
2023-03-05T07:39:19.535Z,2.37
2023-03-05T07:40:21.897Z,3.97
2023-03-05T07:41:24.004Z,2.63
2023-03-05T07:42:25.749Z,2.23
2023-03-05T07:43:41.978Z,3.03
2023-03-05T07:44:43.963Z,3.33
2023-03-05T07:45:46.428Z,4.70
2023-03-05T07:46:47.930Z,2.70
2023-03-05T07:47:51.073Z,3.33
2023-03-05T07:48:54.651Z,2.60
2023-03-05T07:49:56.244Z,2.37
2023-03-05T07:51:05.384Z,2.60
2023-03-05T07:52:08.208Z,3.10
2023-03-05T07:53:10.578Z,2.27
2023-03-05T07:54:11.983Z,2.53
2023-03-05T07:55:13.535Z,2.20
2023-03-05T07:56:21.650Z,2.10
2023-03-05T07:57:23.147Z,2.57
2023-03-05T07:58:24.970Z,2.37
2023-03-05T07:59:26.479Z,3.10
2023-03-05T08:00:28.452Z,1.97
2023-03-05T08:01:31.131Z,1.70
2023-03-05T08:02:32.670Z,2.70
2023-03-05T08:03:34.157Z,2.50
2023-03-05T08:04:35.724Z,2.23
2023-03-05T08:05:39.995Z,4.23
2023-03-05T08:06:42.180Z,2.27
2023-03-05T08:07:44.164Z,2.07
2023-03-05T08:08:45.603Z,2.27
2023-03-05T08:09:47.009Z,2.00
2023-03-05T08:10:48.462Z,2.90
2023-03-05T08:11:49.906Z,1.93
2023-03-05T08:12:51.376Z,2.93
2023-03-05T08:13:53.033Z,2.10
2023-03-05T08:14:54.573Z,2.43
2023-03-05T08:15:56.370Z,2.10
2023-03-05T08:16:57.819Z,2.77
2023-03-05T08:17:59.723Z,1.93
2023-03-05T08:19:02.357Z,2.47
2023-03-05T08:20:07.729Z,3.00
2023-03-05T08:21:19.555Z,2.50
2023-03-05T08:22:20.994Z,2.63
2023-03-05T08:23:22.483Z,2.60
2023-03-05T08:24:29.379Z,2.03
2023-03-05T08:25:31.547Z,3.07
2023-03-05T08:26:35.741Z,3.57
2023-03-05T08:27:41.771Z,2.83
2023-03-05T08:28:43.793Z,2.80
2023-03-05T08:29:45.447Z,3.90
2023-03-05T08:30:47.698Z,3.70
2023-03-05T08:31:49.758Z,2.17
2023-03-05T08:32:51.222Z,4.33
2023-03-05T08:33:55.021Z,2.17
2023-03-05T08:34:58.652Z,3.30
2023-03-05T08:36:00.164Z,2.97
2023-03-05T08:37:01.850Z,3.47
2023-03-05T08:38:03.538Z,3.47
2023-03-05T08:39:06.881Z,3.50
2023-03-05T08:40:09.125Z,3.73
2023-03-05T08:41:10.994Z,2.63
2023-03-05T08:42:12.763Z,3.73
2023-03-05T08:43:15.456Z,3.00
2023-03-05T08:44:17.251Z,4.00
2023-03-05T08:45:18.893Z,4.77
2023-03-05T08:46:20.365Z,4.90
2023-03-05T08:47:22.011Z,4.33
2023-03-05T08:48:26.726Z,4.23
2023-03-05T08:49:28.170Z,3.70
2023-03-05T08:50:29.683Z,3.10
2023-03-05T08:51:31.166Z,2.07
2023-03-05T08:52:32.533Z,3.70
2023-03-05T08:53:34.200Z,3.40
2023-03-05T08:54:37.268Z,3.30
2023-03-05T08:55:38.731Z,3.17
2023-03-05T08:56:40.275Z,3.13
2023-03-05T08:57:41.754Z,3.20
2023-03-05T08:58:44.576Z,2.37
2023-03-05T08:59:45.966Z,2.83
2023-03-05T09:00:47.612Z,2.83
2023-03-05T09:01:49.205Z,4.50
2023-03-05T09:02:51.402Z,2.40
2023-03-05T09:03:52.948Z,3.07
2023-03-05T09:04:54.598Z,3.40
2023-03-05T09:06:01.021Z,4.83
2023-03-05T09:07:02.427Z,3.63
2023-03-05T09:08:03.919Z,3.17
2023-03-05T09:09:05.333Z,3.07
2023-03-05T09:10:07.732Z,3.30
2023-03-05T09:11:11.797Z,4.13
2023-03-05T09:12:13.486Z,3.53
2023-03-05T09:13:14.994Z,2.93
2023-03-05T09:14:16.356Z,4.30
2023-03-05T09:15:18.164Z,4.47
2023-03-05T09:16:20.508Z,3.53
2023-03-05T09:17:22.520Z,3.10
2023-03-05T09:18:24.534Z,4.63
2023-03-05T09:19:27.596Z,3.17
2023-03-05T09:20:29.372Z,3.83
2023-03-05T09:21:31.526Z,2.70
2023-03-05T09:22:33.474Z,3.50
2023-03-05T09:23:35.054Z,3.63
2023-03-05T09:24:36.535Z,3.37
2023-03-05T09:25:40.653Z,2.97
2023-03-05T09:26:42.301Z,3.83
2023-03-05T09:27:45.266Z,2.50
2023-03-05T09:28:47.444Z,2.90
2023-03-05T09:29:49.238Z,3.33
2023-03-05T09:30:50.660Z,3.07
2023-03-05T09:31:52.177Z,3.77
2023-03-05T09:32:53.754Z,3.90
2023-03-05T09:33:55.367Z,3.37
2023-03-05T09:34:57.469Z,2.53
2023-03-05T09:36:00.692Z,3.37
2023-03-05T09:37:03.579Z,3.33
2023-03-05T09:38:05.342Z,3.80
2023-03-05T09:39:07.224Z,2.67
2023-03-05T09:40:15.706Z,2.40
2023-03-05T09:41:31.195Z,3.30
2023-03-05T09:42:44.351Z,2.13
2023-03-05T09:44:17.166Z,2.60
2023-03-05T09:45:39.857Z,2.30
2023-03-05T09:47:31.930Z,3.13
2023-03-05T09:48:36.221Z,2.30
2023-03-05T09:49:46.387Z,3.00
2023-03-05T09:51:04.504Z,3.30
2023-03-05T09:52:18.010Z,3.83
2023-03-05T09:53:28.301Z,3.07
2023-03-05T09:54:41.480Z,3.30
2023-03-05T09:55:46.897Z,3.00
2023-03-05T09:56:53.224Z,3.63
2023-03-05T09:58:02.919Z,3.10
2023-03-05T09:59:29.505Z,3.30
2023-03-05T10:00:37.442Z,2.73
2023-03-05T10:01:42.535Z,2.90
2023-03-05T10:02:53.739Z,2.93
2023-03-05T10:04:12.348Z,2.57
2023-03-05T10:05:20.607Z,3.67
2023-03-05T10:06:31.616Z,3.63
2023-03-05T10:07:38.322Z,2.53
2023-03-05T10:08:45.614Z,2.40
2023-03-05T10:09:51.482Z,3.40
2023-03-05T10:10:54.007Z,3.83
2023-03-05T10:12:28.109Z,3.10
2023-03-05T10:13:43.054Z,2.67
2023-03-05T10:14:45.704Z,3.30
2023-03-05T10:16:31.167Z,3.37
2023-03-05T10:17:46.284Z,4.90
2023-03-05T10:19:14.724Z,4.27
2023-03-05T10:20:50.313Z,6.30
2023-03-05T10:22:03.850Z,4.10
2023-03-05T10:23:08.007Z,3.30
2023-03-05T10:24:21.823Z,3.73
2023-03-05T10:25:23.348Z,3.80
2023-03-05T10:26:45.662Z,3.43
2023-03-05T10:27:55.266Z,2.73
2023-03-05T10:29:18.927Z,3.73
2023-03-05T10:30:32.771Z,2.97
2023-03-05T10:31:57.869Z,5.07
2023-03-05T10:33:12.657Z,3.87
2023-03-05T10:34:58.489Z,3.20
2023-03-05T10:36:11.236Z,2.90
2023-03-05T10:37:51.133Z,4.17
2023-03-05T10:39:14.837Z,5.50
2023-03-05T10:40:35.271Z,3.63
2023-03-05T10:41:48.324Z,3.23
2023-03-05T10:43:05.542Z,4.83
2023-03-05T10:44:33.070Z,3.27
2023-03-05T10:45:40.247Z,4.17
2023-03-05T10:46:41.967Z,5.83
2023-03-05T10:47:59.578Z,4.17
2023-03-05T10:49:16.071Z,2.60
2023-03-05T10:50:24.540Z,2.70
2023-03-05T10:51:39.761Z,4.27
2023-03-05T10:52:48.892Z,3.77
2023-03-05T10:53:59.777Z,4.97
2023-03-05T10:55:01.663Z,4.70
2023-03-05T10:56:05.941Z,4.10
2023-03-05T10:57:23.258Z,3.57
2023-03-05T10:58:25.470Z,3.77
2023-03-05T10:59:27.811Z,5.67
2023-03-05T11:00:29.320Z,3.27
2023-03-05T11:01:31.806Z,4.60
2023-03-05T11:02:34.674Z,3.27
2023-03-05T11:03:48.219Z,3.57
2023-03-05T11:04:51.280Z,3.30
2023-03-05T11:06:03.247Z,3.13
2023-03-05T11:07:29.516Z,3.30
2023-03-05T11:08:35.860Z,5.57
2023-03-05T11:09:37.393Z,3.83
2023-03-05T11:10:38.927Z,2.53
2023-03-05T11:11:40.400Z,3.23
2023-03-05T11:12:42.016Z,4.90
2023-03-05T11:14:01.105Z,4.57
2023-03-05T11:15:14.962Z,2.57
2023-03-05T11:16:26.495Z,3.23
2023-03-05T11:17:39.338Z,3.73
2023-03-05T11:18:42.306Z,4.33
2023-03-05T11:19:43.754Z,4.00
2023-03-05T11:20:45.701Z,3.60
2023-03-05T11:22:20.597Z,3.13
2023-03-05T11:23:25.019Z,3.73
2023-03-05T11:24:26.751Z,3.60
2023-03-05T11:25:28.270Z,2.80
2023-03-05T11:26:30.214Z,3.50
2023-03-05T11:27:34.306Z,3.00
2023-03-05T11:28:37.239Z,4.20
2023-03-05T11:29:48.684Z,4.83
2023-03-05T11:30:59.620Z,5.17
2023-03-05T11:32:25.373Z,3.50
2023-03-05T11:33:27.547Z,4.27
2023-03-05T11:34:35.382Z,3.63
2023-03-05T11:35:39.767Z,3.47
2023-03-05T11:36:44.067Z,3.77
2023-03-05T11:38:01.041Z,3.77
2023-03-05T11:39:18.027Z,3.07
2023-03-05T11:40:22.513Z,4.93
2023-03-05T11:41:33.008Z,2.87
2023-03-05T11:42:34.572Z,3.60
2023-03-05T11:43:38.659Z,3.10
2023-03-05T11:44:52.928Z,2.63
2023-03-05T11:46:01.476Z,3.00
2023-03-05T11:47:29.632Z,2.70
2023-03-05T11:48:41.546Z,4.40
2023-03-05T11:49:48.700Z,3.60
2023-03-05T11:50:55.790Z,3.37
2023-03-05T11:52:03.773Z,4.37
2023-03-05T11:53:11.449Z,3.90
2023-03-05T11:54:20.381Z,7.20
2023-03-05T11:55:22.567Z,3.30
2023-03-05T11:56:36.968Z,3.27
2023-03-05T11:57:48.663Z,4.13
2023-03-05T11:59:16.448Z,3.40
2023-03-05T12:00:32.975Z,4.17
2023-03-05T12:01:49.402Z,2.90
2023-03-05T12:02:54.630Z,3.23
2023-03-05T12:03:56.753Z,3.77
2023-03-05T12:04:59.995Z,3.20
2023-03-05T12:06:34.997Z,4.07
2023-03-05T12:07:43.180Z,4.20
2023-03-05T12:08:48.995Z,3.30
2023-03-05T12:09:53.029Z,3.37
2023-03-05T12:10:55.393Z,2.53
2023-03-05T12:12:18.537Z,3.50
2023-03-05T12:13:52.058Z,2.90
2023-03-05T12:15:03.108Z,3.27
2023-03-05T12:16:32.663Z,2.93
2023-03-05T12:17:39.933Z,3.17
2023-03-05T12:19:12.126Z,3.40
2023-03-05T12:20:41.976Z,3.20
2023-03-05T12:21:44.585Z,3.93
2023-03-05T12:22:46.187Z,3.27
2023-03-05T12:23:52.036Z,4.13
2023-03-05T12:24:53.600Z,3.83
2023-03-05T12:25:59.435Z,2.77
2023-03-05T12:27:03.695Z,3.63
2023-03-05T12:28:05.149Z,4.47
2023-03-05T12:29:30.799Z,3.73
2023-03-05T12:30:35.606Z,3.77
2023-03-05T12:31:39.527Z,3.63
2023-03-05T12:32:53.492Z,3.73
2023-03-05T12:33:55.098Z,3.90
2023-03-05T12:34:58.101Z,5.43
2023-03-05T12:36:18.318Z,3.30
2023-03-05T12:37:23.286Z,3.80
2023-03-05T12:38:32.656Z,4.27
2023-03-05T12:39:49.499Z,3.60
2023-03-05T12:40:51.024Z,2.97
2023-03-05T12:41:52.494Z,3.30
2023-03-05T12:42:57.143Z,2.80
2023-03-05T12:44:24.707Z,7.13
2023-03-05T12:45:31.632Z,3.33
2023-03-05T12:46:37.878Z,4.20
2023-03-05T12:47:40.840Z,3.40
2023-03-05T12:48:44.090Z,3.40
2023-03-05T12:49:47.103Z,3.30
2023-03-05T12:50:49.428Z,3.40
2023-03-05T12:51:53.302Z,3.87
2023-03-05T12:53:00.031Z,3.60
2023-03-05T12:54:23.130Z,3.80
2023-03-05T12:55:33.508Z,2.70
2023-03-05T12:56:40.770Z,3.93
2023-03-05T12:57:45.720Z,3.30
2023-03-05T12:58:53.473Z,3.70
2023-03-05T13:00:04.972Z,3.50
2023-03-05T13:01:16.365Z,3.50
2023-03-05T13:02:31.644Z,3.93
2023-03-05T13:03:43.562Z,3.70
2023-03-05T13:04:46.831Z,3.80
2023-03-05T13:05:54.719Z,3.40
2023-03-05T13:07:05.119Z,3.23
2023-03-05T13:08:16.030Z,4.77
2023-03-05T13:09:23.684Z,4.37
2023-03-05T13:10:28.557Z,5.33
2023-03-05T13:11:37.585Z,3.40
2023-03-05T13:12:39.799Z,3.70
2023-03-05T13:13:47.220Z,4.70
2023-03-05T13:15:04.529Z,4.27
2023-03-05T13:16:06.813Z,3.63
2023-03-05T13:17:32.937Z,3.33
2023-03-05T13:18:34.700Z,3.20
2023-03-05T13:19:36.371Z,4.60
2023-03-05T13:20:42.696Z,3.03
2023-03-05T13:21:44.372Z,2.60
2023-03-05T13:22:46.117Z,4.27
2023-03-05T13:23:58.623Z,2.70
2023-03-05T13:25:20.612Z,4.43
2023-03-05T13:26:22.182Z,2.83
2023-03-05T13:27:32.156Z,2.30
2023-03-05T13:28:33.852Z,2.70
2023-03-05T13:29:36.136Z,3.57
2023-03-05T13:30:38.301Z,2.60
2023-03-05T13:31:58.769Z,3.30
2023-03-05T13:33:05.426Z,2.53
2023-03-05T13:34:19.267Z,2.90
2023-03-05T13:35:21.262Z,2.50
2023-03-05T13:36:25.756Z,2.73
2023-03-05T13:37:36.730Z,4.07
2023-03-05T13:38:45.028Z,2.53
2023-03-05T13:39:51.941Z,3.77
2023-03-05T13:41:26.912Z,2.50
2023-03-05T13:42:34.992Z,2.30
2023-03-05T13:44:00.946Z,2.67
2023-03-05T13:45:06.128Z,4.03
2023-03-05T13:46:08.134Z,2.93
2023-03-05T13:47:20.714Z,3.70
2023-03-05T13:48:22.796Z,2.60
2023-03-05T13:49:26.621Z,3.40
2023-03-05T13:50:40.480Z,2.70
2023-03-05T13:51:47.760Z,3.43
2023-03-05T13:52:49.960Z,2.47
2023-03-05T13:53:51.830Z,3.07
2023-03-05T13:54:54.042Z,2.23
2023-03-05T13:56:01.963Z,2.77
2023-03-05T13:57:06.723Z,3.10
2023-03-05T13:58:40.169Z,2.23
2023-03-05T13:59:51.948Z,4.47
2023-03-05T14:01:04.740Z,2.53
2023-03-05T14:02:19.704Z,4.97
2023-03-05T14:03:26.736Z,3.90
2023-03-05T14:04:36.922Z,3.60
2023-03-05T14:05:44.418Z,3.00
2023-03-05T14:07:01.553Z,1.93
2023-03-05T14:08:03.696Z,3.03
2023-03-05T14:09:09.079Z,3.30
2023-03-05T14:10:31.194Z,2.40
2023-03-05T14:11:34.349Z,3.30
2023-03-05T14:12:43.428Z,2.60
2023-03-05T14:13:46.017Z,2.77
2023-03-05T14:14:48.394Z,2.67
2023-03-05T14:16:32.585Z,2.50
2023-03-05T14:17:52.765Z,1.70
2023-03-05T14:18:59.166Z,2.00
2023-03-05T14:20:30.078Z,3.30
2023-03-05T14:21:50.702Z,1.93
2023-03-05T14:22:54.978Z,2.40
2023-03-05T14:23:57.918Z,3.87
2023-03-05T14:24:59.798Z,1.57
2023-03-05T14:26:28.802Z,2.63